Time;durP1;ratioP1;P1;durP2;ratioP2;P2;SDS_P1;SDS_P2;PMS_P1;PMS_P2;Temp;Humidity;BMP_temperature;BMP_pressure;BME280_temperature;BME280_humidity;BME280_pressure;Samples;Min_cycle;Max_cycle;Signal;HPM_P1;HPM_P2
2024/03/01 00:01:42;;;;;;;31.53;22.27;;;5.80;99.90;;;;;;5053040;28;20166;-75
2024/03/01 00:04:07;;;;;;;36.63;25.17;;;5.60;99.90;;;;;;5052714;28;20746;-75
2024/03/01 00:06:33;;;;;;;36.30;24.07;;;5.60;99.90;;;;;;5052823;28;20176;-74
2024/03/01 00:08:58;;;;;;;36.13;23.50;;;5.60;99.90;;;;;;5053141;28;20197;-75
2024/03/01 00:11:24;;;;;;;42.63;24.03;;;5.50;99.90;;;;;;5053379;28;20166;-71
2024/03/01 00:13:50;;;;;;;40.23;23.90;;;5.60;99.90;;;;;;5053367;28;20202;-75
2024/03/01 00:16:15;;;;;;;37.53;23.60;;;5.60;99.90;;;;;;5053137;28;20169;-73
2024/03/01 00:18:42;;;;;;;37.70;25.27;;;5.70;99.90;;;;;;5052816;28;20556;-72
2024/03/01 00:21:11;;;;;;;38.63;24.53;;;5.70;99.90;;;;;;5053423;28;20181;-72
2024/03/01 00:23:36;;;;;;;37.17;23.67;;;5.80;99.90;;;;;;5053353;28;20940;-75
2024/03/01 00:26:02;;;;;;;43.63;25.90;;;5.80;99.90;;;;;;5053329;28;20501;-74
2024/03/01 00:28:28;;;;;;;43.33;27.13;;;5.80;99.90;;;;;;5052015;28;20197;-74
2024/03/01 00:30:53;;;;;;;36.27;24.77;;;5.80;99.90;;;;;;5052743;28;20174;-75
2024/03/01 00:33:18;;;;;;;38.57;23.93;;;5.90;99.90;;;;;;5053160;28;20208;-75
2024/03/01 00:35:44;;;;;;;37.50;26.70;;;5.80;99.90;;;;;;5053037;28;20178;-74
2024/03/01 00:38:10;;;;;;;39.63;26.27;;;5.80;99.90;;;;;;5052141;28;20240;-74
2024/03/01 00:40:35;;;;;;;51.37;27.60;;;5.80;99.90;;;;;;5052893;28;20227;-74
2024/03/01 00:43:00;;;;;;;33.57;23.80;;;5.90;99.90;;;;;;5052771;28;20173;-74
2024/03/01 00:45:26;;;;;;;43.63;27.10;;;5.90;99.90;;;;;;5052817;28;20701;-75
2024/03/01 00:47:52;;;;;;;35.37;24.30;;;5.90;99.90;;;;;;5051997;28;20201;-74
2024/03/01 00:50:21;;;;;;;38.37;24.87;;;5.90;99.90;;;;;;5052755;28;20176;-74
2024/03/01 00:52:47;;;;;;;42.73;25.47;;;5.90;99.90;;;;;;5052725;28;20597;-72
2024/03/01 00:55:13;;;;;;;36.03;23.83;;;5.80;99.90;;;;;;5052721;28;20419;-73
2024/03/01 00:57:39;;;;;;;39.27;26.60;;;5.80;99.90;;;;;;5051595;28;20980;-72
2024/03/01 01:00:08;;;;;;;35.53;25.60;;;5.70;99.90;;;;;;5052490;28;20189;-72
2024/03/01 01:02:34;;;;;;;38.07;24.83;;;5.60;99.90;;;;;;5052631;28;20248;-73
2024/03/01 01:05:00;;;;;;;49.57;27.37;;;5.40;99.90;;;;;;5052516;28;20820;-73
2024/03/01 01:07:25;;;;;;;46.13;27.07;;;5.40;99.90;;;;;;5051705;28;20435;-73
2024/03/01 01:09:51;;;;;;;39.23;24.53;;;5.40;99.90;;;;;;5052328;28;20201;-73
2024/03/01 01:12:17;;;;;;;37.77;26.27;;;5.30;99.90;;;;;;5052154;28;20263;-73
2024/03/01 01:14:43;;;;;;;37.33;25.77;;;5.30;99.90;;;;;;5052303;28;20177;-73
2024/03/01 01:17:08;;;;;;;40.27;25.70;;;5.30;99.90;;;;;;5051539;28;20162;-73
2024/03/01 01:19:34;;;;;;;41.20;24.97;;;5.30;99.90;;;;;;5052088;28;20872;-72
2024/03/01 01:21:59;;;;;;;38.37;29.37;;;5.40;99.90;;;;;;5052274;28;20863;-73
2024/03/01 01:24:25;;;;;;;39.03;26.63;;;5.50;99.90;;;;;;5052197;28;20162;-73
2024/03/01 01:26:50;;;;;;;43.17;27.10;;;5.50;99.90;;;;;;5051358;28;20184;-73
2024/03/01 01:29:16;;;;;;;42.37;26.70;;;5.60;99.90;;;;;;5051993;28;20189;-73
2024/03/01 01:31:41;;;;;;;42.03;26.43;;;5.60;99.90;;;;;;5052230;28;20670;-72
2024/03/01 01:34:07;;;;;;;35.73;24.70;;;5.70;99.90;;;;;;5052092;28;20201;-73
2024/03/01 01:36:32;;;;;;;36.33;24.87;;;5.70;99.90;;;;;;5051216;28;20185;-73
2024/03/01 01:38:58;;;;;;;47.87;27.90;;;5.80;99.90;;;;;;5051958;28;20566;-72
2024/03/01 01:41:23;;;;;;;40.47;26.33;;;5.80;99.90;;;;;;5051765;28;20746;-73
2024/03/01 01:43:49;;;;;;;40.43;26.10;;;5.80;99.90;;;;;;5051931;28;20185;-73
2024/03/01 01:46:15;;;;;;;40.90;25.73;;;5.80;99.90;;;;;;5051667;28;20251;-72
2024/03/01 01:48:43;;;;;;;35.60;24.10;;;5.90;99.90;;;;;;5050068;28;20201;-73
2024/03/01 01:51:09;;;;;;;38.87;26.03;;;5.90;99.90;;;;;;5051894;28;20459;-73
2024/03/01 01:53:35;;;;;;;35.70;23.40;;;6.00;99.90;;;;;;5051833;28;20835;-72
2024/03/01 01:56:01;;;;;;;39.77;25.30;;;6.00;99.90;;;;;;5051749;28;20434;-72
2024/03/01 01:58:28;;;;;;;36.47;24.87;;;6.00;99.90;;;;;;5050880;28;20543;-72
2024/03/01 02:00:55;;;;;;;36.03;24.70;;;6.00;99.90;;;;;;5051940;28;20204;-73
2024/03/01 02:03:21;;;;;;;37.73;26.30;;;6.00;99.90;;;;;;5051830;28;20792;-73
2024/03/01 02:05:48;;;;;;;36.30;25.00;;;6.10;99.90;;;;;;5051689;28;20408;-73
2024/03/01 02:08:13;;;;;;;35.37;24.97;;;6.10;99.90;;;;;;5050925;28;20598;-73
2024/03/01 02:10:39;;;;;;;40.90;26.50;;;6.10;99.90;;;;;;5051584;28;20408;-73
2024/03/01 02:13:04;;;;;;;39.93;23.93;;;6.10;99.90;;;;;;5051623;28;20259;-73
2024/03/01 02:15:30;;;;;;;38.67;24.33;;;6.10;99.90;;;;;;5051646;28;20654;-74
2024/03/01 02:17:57;;;;;;;34.37;23.50;;;6.10;99.90;;;;;;5050859;28;20288;-73
2024/03/01 02:20:26;;;;;;;37.13;23.27;;;6.10;99.90;;;;;;5051717;28;20196;-73
2024/03/01 02:23:01;;;;;;;35.23;25.47;;;6.00;99.90;;;;;;5051539;28;20415;-73
2024/03/01 02:25:27;;;;;;;37.73;25.00;;;6.00;99.90;;;;;;5051569;28;20929;-72
2024/03/01 02:27:52;;;;;;;36.77;24.50;;;6.00;99.90;;;;;;5050729;28;20518;-72
2024/03/01 02:30:18;;;;;;;34.10;23.80;;;5.90;99.90;;;;;;5051635;28;20183;-73
2024/03/01 02:32:43;;;;;;;39.97;27.80;;;5.90;99.90;;;;;;5051421;28;20233;-73
2024/03/01 02:35:09;;;;;;;37.07;24.33;;;5.90;99.90;;;;;;5051441;28;20659;-73
2024/03/01 02:37:35;;;;;;;51.00;28.63;;;5.90;99.90;;;;;;5050530;28;20212;-72
2024/03/01 02:40:01;;;;;;;41.13;26.17;;;5.90;99.90;;;;;;5051519;28;20818;-73
2024/03/01 02:42:26;;;;;;;42.03;29.90;;;5.90;99.90;;;;;;5051446;28;20910;-72
2024/03/01 02:44:52;;;;;;;46.73;27.97;;;5.90;99.90;;;;;;5051468;28;20176;-73
2024/03/01 02:47:18;;;;;;;43.27;25.03;;;5.90;99.90;;;;;;5050613;28;20178;-73
2024/03/01 02:49:43;;;;;;;43.27;26.27;;;6.00;99.90;;;;;;5051288;28;20436;-73
2024/03/01 02:52:09;;;;;;;39.97;24.87;;;5.90;99.90;;;;;;5051758;28;20211;-73
2024/03/01 02:54:35;;;;;;;38.57;25.07;;;5.90;99.90;;;;;;5054907;28;20168;-73
2024/03/01 02:57:00;;;;;;;41.07;25.10;;;6.00;99.90;;;;;;5054077;28;20451;-73
2024/03/01 02:59:25;;;;;;;40.17;25.43;;;6.00;99.90;;;;;;5054801;28;20181;-73
2024/03/01 03:01:52;;;;;;;37.00;26.37;;;6.10;99.90;;;;;;5054788;28;20201;-73
2024/03/01 03:04:18;;;;;;;44.37;25.37;;;6.20;99.90;;;;;;5054862;28;20174;-73
2024/03/01 03:06:43;;;;;;;33.60;25.80;;;6.30;99.90;;;;;;5053910;28;20416;-72
2024/03/01 03:09:09;;;;;;;37.00;24.97;;;6.30;99.90;;;;;;5054532;28;20186;-73
2024/03/01 03:11:35;;;;;;;37.63;24.20;;;6.30;99.90;;;;;;5054583;28;20166;-73
2024/03/01 03:14:02;;;;;;;35.13;25.00;;;6.40;99.90;;;;;;5054500;28;20208;-73
2024/03/01 03:16:27;;;;;;;40.30;24.67;;;6.40;99.90;;;;;;5053886;28;20412;-73
2024/03/01 03:18:53;;;;;;;35.70;24.53;;;6.20;99.90;;;;;;5054408;28;20529;-73
2024/03/01 03:21:19;;;;;;;35.13;27.20;;;6.00;99.90;;;;;;5054426;28;20170;-73
2024/03/01 03:23:45;;;;;;;35.97;24.27;;;5.90;99.90;;;;;;5054362;28;20173;-73
2024/03/01 03:26:11;;;;;;;40.60;25.70;;;5.90;99.90;;;;;;5054454;28;20177;-73
2024/03/01 03:28:36;;;;;;;35.00;24.13;;;6.00;99.90;;;;;;5053738;28;20996;-73
2024/03/01 03:31:02;;;;;;;45.80;27.17;;;5.90;99.90;;;;;;5054304;28;20173;-73
2024/03/01 03:33:27;;;;;;;47.80;27.23;;;5.90;99.90;;;;;;5054262;28;20197;-72
2024/03/01 03:35:53;;;;;;;49.33;27.63;;;5.80;99.90;;;;;;5054063;28;20176;-73
2024/03/01 03:38:18;;;;;;;41.70;27.30;;;5.80;99.90;;;;;;5053258;28;20185;-73
2024/03/01 03:40:44;;;;;;;41.03;26.67;;;5.80;99.90;;;;;;5054063;28;20205;-73
2024/03/01 03:43:10;;;;;;;46.17;27.10;;;5.80;99.90;;;;;;5054080;28;20666;-73
2024/03/01 03:45:36;;;;;;;47.07;27.60;;;5.80;99.90;;;;;;5054006;28;20181;-73
2024/03/01 03:48:01;;;;;;;36.27;25.70;;;5.80;99.90;;;;;;5053281;28;20198;-73
2024/03/01 03:50:27;;;;;;;41.93;25.03;;;5.80;99.90;;;;;;5053929;28;20169;-72
2024/03/01 03:52:52;;;;;;;31.10;22.50;;;5.90;99.90;;;;;;5053755;28;20280;-73
2024/03/01 03:55:18;;;;;;;46.57;26.93;;;5.90;99.90;;;;;;5054102;28;20204;-73
2024/03/01 03:57:43;;;;;;;38.97;25.20;;;5.90;99.90;;;;;;5052855;28;20185;-72
2024/03/01 04:00:14;;;;;;;40.40;24.67;;;5.80;99.90;;;;;;5053662;28;20165;-73
2024/03/01 04:02:40;;;;;;;41.03;24.67;;;5.80;99.90;;;;;;5053741;28;20255;-73
2024/03/01 04:05:06;;;;;;;44.67;26.70;;;5.80;99.90;;;;;;5053466;28;20416;-73
2024/03/01 04:07:32;;;;;;;40.20;26.70;;;5.70;99.90;;;;;;5052739;28;20173;-73
2024/03/01 04:09:57;;;;;;;38.43;26.90;;;5.70;99.90;;;;;;5053536;28;20451;-73
2024/03/01 04:12:23;;;;;;;39.93;24.90;;;5.60;99.90;;;;;;5053448;28;20448;-72
2024/03/01 04:14:48;;;;;;;45.87;28.47;;;5.60;99.90;;;;;;5053473;28;20200;-72
2024/03/01 04:17:14;;;;;;;45.30;27.17;;;5.60;99.90;;;;;;5052651;28;20662;-73
2024/03/01 04:19:40;;;;;;;42.20;27.07;;;5.60;99.90;;;;;;5053179;28;20196;-72
2024/03/01 04:22:05;;;;;;;46.20;27.33;;;5.60;99.90;;;;;;5051911;28;20181;-73
2024/03/01 04:24:31;;;;;;;46.17;27.20;;;5.60;99.90;;;;;;5053247;28;20170;-73
2024/03/01 04:26:57;;;;;;;42.97;27.33;;;5.70;99.90;;;;;;5052574;28;20169;-72
2024/03/01 04:29:22;;;;;;;38.60;26.33;;;5.70;99.90;;;;;;5053125;28;20562;-73
2024/03/01 04:31:51;;;;;;;42.90;26.07;;;5.80;99.90;;;;;;5053082;28;20174;-73
2024/03/01 04:34:18;;;;;;;41.30;26.00;;;5.80;99.90;;;;;;5053001;28;20177;-73
2024/03/01 04:36:43;;;;;;;35.10;23.30;;;5.90;99.90;;;;;;5052198;28;20843;-73
2024/03/01 04:39:09;;;;;;;45.20;25.63;;;6.00;99.90;;;;;;5052937;28;20511;-73
2024/03/01 04:41:38;;;;;;;44.20;27.00;;;6.10;99.90;;;;;;5052951;28;20531;-73
2024/03/01 04:44:04;;;;;;;37.47;24.63;;;6.20;99.90;;;;;;5053002;28;20181;-73
2024/03/01 04:46:29;;;;;;;42.83;26.60;;;6.20;99.90;;;;;;5052079;28;20806;-73
2024/03/01 04:48:55;;;;;;;37.17;25.90;;;6.20;99.90;;;;;;5052665;28;20202;-73
2024/03/01 04:51:22;;;;;;;42.10;26.57;;;6.10;99.90;;;;;;5052701;28;20181;-72
2024/03/01 04:53:48;;;;;;;44.03;27.67;;;6.10;99.90;;;;;;5052648;28;20204;-73
2024/03/01 04:56:14;;;;;;;37.97;27.30;;;6.10;99.90;;;;;;5052366;28;20427;-73
2024/03/01 04:58:39;;;;;;;37.30;24.13;;;6.10;99.90;;;;;;5051887;28;20350;-73
2024/03/01 05:01:05;;;;;;;37.23;23.20;;;6.10;99.90;;;;;;5052515;28;20660;-73
2024/03/01 05:03:31;;;;;;;37.60;26.50;;;6.10;99.90;;;;;;5052561;28;20536;-73
2024/03/01 05:05:57;;;;;;;38.83;27.80;;;6.10;99.90;;;;;;5052509;28;20708;-73
2024/03/01 05:08:23;;;;;;;39.13;25.50;;;6.20;99.90;;;;;;5051369;28;20467;-73
2024/03/01 05:10:52;;;;;;;35.30;24.57;;;6.20;99.90;;;;;;5052290;28;20448;-73
2024/03/01 05:13:18;;;;;;;36.60;24.13;;;6.20;99.90;;;;;;5052212;28;20447;-73
2024/03/01 05:15:45;;;;;;;35.20;24.57;;;6.20;99.90;;;;;;5051872;28;20412;-74
2024/03/01 05:18:11;;;;;;;38.33;24.40;;;6.20;99.90;;;;;;5051352;28;20444;-73
2024/03/01 05:20:37;;;;;;;37.30;24.47;;;6.20;99.90;;;;;;5052210;28;20412;-73
2024/03/01 05:23:03;;;;;;;39.07;25.40;;;6.10;99.90;;;;;;5052166;28;20426;-73
2024/03/01 05:25:28;;;;;;;36.50;25.47;;;6.10;99.90;;;;;;5052056;28;20491;-73
2024/03/01 05:27:54;;;;;;;39.67;27.37;;;6.10;99.90;;;;;;5051315;28;20197;-73
2024/03/01 05:30:21;;;;;;;37.23;25.43;;;6.20;99.90;;;;;;5052125;28;20705;-73
2024/03/01 05:32:48;;;;;;;36.37;24.57;;;6.20;99.90;;;;;;5051956;28;20223;-73
2024/03/01 05:35:14;;;;;;;34.43;26.00;;;6.30;99.90;;;;;;5051942;28;20438;-74
2024/03/01 05:37:41;;;;;;;39.10;26.10;;;6.40;99.90;;;;;;5051208;28;20420;-73
2024/03/01 05:40:14;;;;;;;40.50;27.70;;;6.30;99.90;;;;;;5051993;28;20494;-72
2024/03/01 05:42:41;;;;;;;35.80;23.73;;;6.30;99.90;;;;;;5051980;28;20783;-74
2024/03/01 05:45:07;;;;;;;38.07;25.90;;;6.30;99.90;;;;;;5051833;28;20510;-74
2024/03/01 05:47:40;;;;;;;39.33;26.30;;;6.30;99.90;;;;;;5051140;28;20887;-72
2024/03/01 05:50:09;;;;;;;36.77;26.57;;;6.30;99.90;;;;;;5051814;28;20420;-72
2024/03/01 05:52:35;;;;;;;40.97;27.70;;;6.30;99.90;;;;;;5051811;28;20817;-73
2024/03/01 05:55:05;;;;;;;41.50;26.13;;;6.30;99.90;;;;;;5051826;28;20416;-73
2024/03/01 05:57:34;;;;;;;41.93;27.97;;;6.30;99.90;;;;;;5051025;28;20436;-73
2024/03/01 06:00:00;;;;;;;42.43;27.03;;;6.20;99.90;;;;;;5051758;28;20416;-74
2024/03/01 06:02:26;;;;;;;39.67;26.30;;;6.20;99.90;;;;;;5052161;28;20815;-72
2024/03/01 06:04:52;;;;;;;46.10;27.80;;;6.10;99.90;;;;;;5051759;28;20431;-72
2024/03/01 06:07:18;;;;;;;38.17;28.67;;;6.10;99.90;;;;;;5050908;28;20635;-72
2024/03/01 06:09:44;;;;;;;39.73;25.17;;;6.10;99.90;;;;;;5051555;28;20221;-72
2024/03/01 06:12:10;;;;;;;39.27;25.17;;;6.00;99.90;;;;;;5051504;28;20800;-72
2024/03/01 06:14:36;;;;;;;44.53;28.33;;;6.00;99.90;;;;;;5051513;28;20408;-72
2024/03/01 06:17:02;;;;;;;51.93;29.33;;;6.00;99.90;;;;;;5050859;28;20173;-72
2024/03/01 06:19:27;;;;;;;45.60;28.30;;;6.00;99.90;;;;;;5051448;28;20470;-72
2024/03/01 06:21:56;;;;;;;42.87;27.60;;;6.00;99.90;;;;;;5051480;28;20443;-72
2024/03/01 06:24:22;;;;;;;42.03;26.60;;;6.10;99.90;;;;;;5051527;28;20631;-72
2024/03/01 06:26:49;;;;;;;42.50;27.80;;;6.10;99.90;;;;;;5050825;28;20941;-72
2024/03/01 06:29:15;;;;;;;43.40;27.90;;;6.20;99.90;;;;;;5055414;28;20856;-72
2024/03/01 06:31:42;;;;;;;50.93;29.17;;;6.30;99.90;;;;;;5055343;28;20444;-72
2024/03/01 06:34:07;;;;;;;44.37;28.20;;;6.30;99.90;;;;;;5055144;28;20463;-72
2024/03/01 06:36:33;;;;;;;45.20;26.93;;;6.30;99.90;;;;;;5054456;28;20859;-72
2024/03/01 06:38:58;;;;;;;41.07;27.17;;;6.40;99.90;;;;;;5055180;28;20189;-72
2024/03/01 06:41:24;;;;;;;47.47;31.13;;;6.40;99.90;;;;;;5055031;28;20165;-73
2024/03/01 06:43:50;;;;;;;42.47;26.70;;;6.40;99.90;;;;;;5055508;28;20204;-72
2024/03/01 06:46:15;;;;;;;43.93;29.60;;;6.50;99.90;;;;;;5054775;28;20174;-73
2024/03/01 06:48:41;;;;;;;35.00;27.03;;;6.50;99.90;;;;;;5054482;28;20205;-72
2024/03/01 06:51:06;;;;;;;49.20;30.17;;;6.60;99.90;;;;;;5055174;28;20178;-72
2024/03/01 06:53:32;;;;;;;37.30;27.13;;;6.70;99.90;;;;;;5055127;28;20193;-73
2024/03/01 06:55:57;;;;;;;39.70;27.37;;;6.70;99.90;;;;;;5054833;28;20177;-72
2024/03/01 06:58:23;;;;;;;36.97;27.33;;;6.70;99.90;;;;;;5053916;28;20209;-72
2024/03/01 07:00:48;;;;;;;45.13;28.10;;;6.70;99.90;;;;;;5054697;28;20223;-72
2024/03/01 07:03:14;;;;;;;38.17;26.97;;;6.80;99.90;;;;;;5054716;28;20180;-72
2024/03/01 07:05:40;;;;;;;39.00;26.83;;;6.80;99.90;;;;;;5054683;28;20177;-72
2024/03/01 07:08:06;;;;;;;37.27;27.00;;;6.90;99.90;;;;;;5053923;28;20243;-72
2024/03/01 07:10:31;;;;;;;39.60;26.87;;;7.00;99.90;;;;;;5054512;28;20678;-72
2024/03/01 07:12:57;;;;;;;37.53;25.00;;;7.10;99.90;;;;;;5054595;28;20456;-72
2024/03/01 07:15:22;;;;;;;37.20;25.57;;;7.30;99.90;;;;;;5054506;28;20165;-73
2024/03/01 07:17:48;;;;;;;42.20;25.50;;;7.30;99.90;;;;;;5053696;28;20736;-72
2024/03/01 07:20:14;;;;;;;35.67;24.73;;;7.40;99.90;;;;;;5054427;28;20551;-72
2024/03/01 07:22:39;;;;;;;38.23;27.77;;;7.50;99.90;;;;;;5054427;28;20537;-72
2024/03/01 07:25:05;;;;;;;40.07;27.37;;;7.50;99.90;;;;;;5054255;28;20509;-72
2024/03/01 07:27:35;;;;;;;37.47;24.93;;;7.60;99.90;;;;;;5053634;28;20181;-73
2024/03/01 07:30:05;;;;;;;38.27;28.00;;;7.70;99.90;;;;;;5051419;28;20806;-73
2024/03/01 07:32:33;;;;;;;39.40;27.20;;;7.80;99.90;;;;;;5053889;28;20471;-72
2024/03/01 07:34:58;;;;;;;40.90;25.00;;;7.90;99.90;;;;;;5054199;28;20499;-73
2024/03/01 07:37:24;;;;;;;38.33;25.20;;;8.00;99.90;;;;;;5053314;28;20452;-72
2024/03/01 07:39:50;;;;;;;34.40;24.83;;;8.00;99.90;;;;;;5053525;28;20248;-71
2024/03/01 07:42:16;;;;;;;37.87;25.53;;;8.10;99.90;;;;;;5053918;28;20166;-72
2024/03/01 07:44:41;;;;;;;33.10;24.60;;;8.20;99.90;;;;;;5053894;28;20481;-72
2024/03/01 07:47:08;;;;;;;36.33;24.73;;;8.20;99.90;;;;;;5053069;28;20252;-71
2024/03/01 07:49:33;;;;;;;35.80;25.10;;;8.20;99.90;;;;;;5053715;28;20268;-72
2024/03/01 07:51:59;;;;;;;36.90;25.47;;;8.30;99.90;;;;;;5053650;28;20507;-72
2024/03/01 07:54:27;;;;;;;40.93;25.30;;;8.40;99.90;;;;;;5053533;28;20197;-72
2024/03/01 07:56:52;;;;;;;39.23;27.70;;;8.40;99.90;;;;;;5052826;28;20169;-71
2024/03/01 07:59:18;;;;;;;43.80;28.60;;;8.60;99.90;;;;;;5053561;28;20434;-72
2024/03/01 08:01:44;;;;;;;38.97;26.23;;;8.70;99.90;;;;;;5053563;28;20574;-72
2024/03/01 08:04:11;;;;;;;34.30;24.10;;;8.80;99.90;;;;;;5053365;28;20184;-72
2024/03/01 08:06:36;;;;;;;36.30;24.30;;;8.90;99.90;;;;;;5052807;28;20582;-71
2024/03/01 08:09:02;;;;;;;32.93;24.10;;;9.10;99.90;;;;;;5053260;28;20440;-70
2024/03/01 08:11:45;;;;;;;32.03;23.47;;;9.30;99.90;;;;;;5053260;28;20182;-71
2024/03/01 08:14:34;;;;;;;34.97;24.77;;;9.40;99.90;;;;;;5053161;28;20194;-71
2024/03/01 08:17:00;;;;;;;38.67;26.23;;;9.40;99.90;;;;;;5042041;28;20428;-71
2024/03/01 08:19:46;;;;;;;32.90;19.80;;;9.40;99.90;;;;;;5052861;28;20432;-71
2024/03/01 08:22:19;;;;;;;25.60;17.73;;;9.30;99.90;;;;;;5053044;28;20408;-71
2024/03/01 08:24:46;;;;;;;27.67;17.37;;;9.00;99.90;;;;;;5053136;28;20829;-71
2024/03/01 08:27:16;;;;;;;21.40;16.50;;;8.90;99.90;;;;;;5052342;28;20416;-72
2024/03/01 08:29:42;;;;;;;21.00;16.50;;;8.90;99.90;;;;;;5052803;28;20436;-72
2024/03/01 08:32:25;;;;;;;25.20;15.80;;;8.90;99.90;;;;;;5052781;28;20462;-72
2024/03/01 08:34:55;;;;;;;23.37;15.50;;;8.90;99.90;;;;;;5051762;28;20227;-73
2024/03/01 08:37:25;;;;;;;19.30;14.23;;;8.90;99.90;;;;;;5052120;28;20427;-73
2024/03/01 08:39:53;;;;;;;21.20;14.03;;;9.00;99.90;;;;;;5052737;28;20436;-72
2024/03/01 08:42:19;;;;;;;21.03;14.87;;;9.00;99.90;;;;;;5052705;28;20424;-72
2024/03/01 08:44:58;;;;;;;20.10;13.07;;;9.10;99.90;;;;;;5053023;28;20980;-72
2024/03/01 08:47:37;;;;;;;16.20;13.07;;;9.10;99.90;;;;;;5051897;28;20426;-72
2024/03/01 08:50:23;;;;;;;16.80;12.53;;;9.10;99.90;;;;;;5051844;28;20450;-72
2024/03/01 08:52:49;;;;;;;15.27;12.40;;;9.20;99.90;;;;;;5052333;28;20467;-72
2024/03/01 08:55:18;;;;;;;16.50;12.90;;;9.20;99.90;;;;;;5052538;28;20416;-72
2024/03/01 08:57:48;;;;;;;17.00;12.30;;;9.10;99.90;;;;;;5051690;28;20181;-73
2024/03/01 09:00:37;;;;;;;16.57;12.03;;;9.10;99.90;;;;;;5052224;28;20416;-72
2024/03/01 09:03:03;;;;;;;16.60;12.33;;;9.10;99.90;;;;;;5052344;28;20450;-73
2024/03/01 09:05:30;;;;;;;18.50;13.10;;;9.00;99.90;;;;;;5052405;28;20426;-72
2024/03/01 09:07:57;;;;;;;14.97;12.10;;;9.00;99.90;;;;;;5051526;28;20450;-72
2024/03/01 09:10:27;;;;;;;14.30;11.60;;;9.00;99.90;;;;;;5052218;28;20499;-72
2024/03/01 09:12:53;;;;;;;16.10;10.93;;;9.00;99.90;;;;;;5052251;28;20455;-72
2024/03/01 09:15:22;;;;;;;13.33;10.33;;;9.10;99.90;;;;;;5052180;28;20428;-72
2024/03/01 09:17:48;;;;;;;17.33;11.07;;;9.10;99.90;;;;;;5051290;28;20412;-73
2024/03/01 09:20:35;;;;;;;17.33;12.23;;;9.10;99.90;;;;;;5052065;28;20431;-73
2024/03/01 09:23:03;;;;;;;17.50;10.93;;;9.10;99.90;;;;;;5051945;28;20435;-72
2024/03/01 09:25:41;;;;;;;19.17;12.60;;;9.10;99.90;;;;;;5052063;28;20836;-73
2024/03/01 09:28:11;;;;;;;16.23;10.83;;;8.90;99.90;;;;;;5051108;28;20440;-73
2024/03/01 09:30:38;;;;;;;15.00;10.30;;;8.80;99.90;;;;;;5051948;28;20462;-73
2024/03/01 09:33:10;;;;;;;17.40;11.20;;;8.70;99.90;;;;;;5051980;28;20491;-72
2024/03/01 09:35:36;;;;;;;14.30;10.40;;;8.60;99.90;;;;;;5051925;28;20420;-73
2024/03/01 09:38:02;;;;;;;12.37;10.20;;;8.50;99.90;;;;;;5050987;28;20878;-72
2024/03/01 09:40:54;;;;;;;13.03;9.93;;;8.60;99.90;;;;;;5051957;28;20511;-72
2024/03/01 09:43:19;;;;;;;12.70;9.43;;;8.60;99.90;;;;;;5051815;28;20949;-72
2024/03/01 09:45:57;;;;;;;10.60;8.73;;;8.60;99.90;;;;;;5051754;28;20423;-72
2024/03/01 09:48:54;;;;;;;16.10;9.97;;;8.60;99.90;;;;;;5051020;28;20207;-72
2024/03/01 09:52:03;;;;;;;12.73;9.57;;;8.60;99.90;;;;;;5052034;28;20420;-72
2024/03/01 09:54:44;;;;;;;13.63;10.10;;;8.50;99.90;;;;;;5007370;28;20457;-72
2024/03/01 09:57:33;;;;;;;10.50;9.37;;;8.60;99.90;;;;;;5050780;28;20446;-72
2024/03/01 10:00:05;;;;;;;11.77;9.90;;;8.50;99.90;;;;;;5051862;28;20997;-72
2024/03/01 10:02:51;;;;;;;16.17;10.57;;;8.50;99.90;;;;;;5054795;28;20416;-72
2024/03/01 10:05:54;;;;;;;9.67;7.90;;;8.60;99.90;;;;;;5055746;28;20419;-72
2024/03/01 10:08:37;;;;;;;13.33;9.17;;;8.60;99.90;;;;;;5054631;28;20518;-72
2024/03/01 10:11:26;;;;;;;10.13;8.53;;;8.60;99.90;;;;;;5055685;28;20424;-72
2024/03/01 10:14:17;;;;;;;12.10;9.10;;;8.60;99.90;;;;;;5055481;28;20459;-71
2024/03/01 10:17:35;;;;;;;12.23;10.80;;;8.60;99.90;;;;;;5016854;28;20437;-73
2024/03/01 10:20:19;;;;;;;11.07;9.10;;;8.60;99.90;;;;;;4974547;28;20785;-72
2024/03/01 10:23:02;;;;;;;11.70;9.30;;;8.60;99.90;;;;;;5055780;28;20424;-71
2024/03/01 10:25:43;;;;;;;12.90;9.60;;;8.60;99.90;;;;;;5055519;28;20419;-72
2024/03/01 10:28:12;;;;;;;13.27;9.73;;;8.60;99.90;;;;;;5054611;28;20483;-72
2024/03/01 10:30:59;;;;;;;11.00;9.60;;;8.70;99.90;;;;;;5055087;28;20437;-72
2024/03/01 10:33:52;;;;;;;14.77;11.20;;;8.90;99.90;;;;;;5055360;28;20557;-72
2024/03/01 10:36:36;;;;;;;14.93;9.37;;;8.90;99.90;;;;;;5054732;28;20427;-72
2024/03/01 10:39:16;;;;;;;18.37;10.23;;;8.90;99.90;;;;;;5051648;28;20571;-73
2024/03/01 10:41:58;;;;;;;13.00;8.90;;;8.90;99.90;;;;;;5055104;28;20506;-72
2024/03/01 10:44:51;;;;;;;11.60;10.30;;;9.00;99.90;;;;;;5049116;28;20901;-72
2024/03/01 10:47:20;;;;;;;14.70;10.50;;;9.10;99.90;;;;;;5043880;28;20428;-71
2024/03/01 10:49:57;;;;;;;12.37;9.50;;;9.10;99.90;;;;;;5042237;28;20456;-72
2024/03/01 10:52:26;;;;;;;16.27;12.13;;;8.90;99.90;;;;;;5043742;28;20510;-73
2024/03/01 10:54:55;;;;;;;14.70;10.73;;;8.80;99.90;;;;;;5042428;28;20428;-73
2024/03/01 10:57:21;;;;;;;16.37;11.30;;;8.80;99.90;;;;;;5043306;28;20439;-72
2024/03/01 10:59:49;;;;;;;15.20;10.93;;;8.70;99.90;;;;;;5045217;28;20489;-72
2024/03/01 11:02:23;;;;;;;13.10;10.27;;;8.70;99.90;;;;;;5044065;28;20475;-72
2024/03/01 11:04:56;;;;;;;13.83;11.50;;;8.70;99.90;;;;;;5043417;28;20444;-73
2024/03/01 11:07:31;;;;;;;15.20;10.67;;;8.90;99.90;;;;;;5043073;28;20495;-72
2024/03/01 11:10:12;;;;;;;16.00;11.63;;;9.10;99.90;;;;;;5044237;28;20464;-72
2024/03/01 11:13:04;;;;;;;13.90;10.70;;;9.30;99.90;;;;;;5043604;28;20457;-71
2024/03/01 11:15:31;;;;;;;12.60;10.03;;;9.60;99.90;;;;;;5045389;28;20936;-72
2024/03/01 11:18:04;;;;;;;13.00;9.43;;;9.80;99.90;;;;;;5043308;28;20440;-72
2024/03/01 11:20:35;;;;;;;13.30;11.03;;;10.10;99.90;;;;;;5043123;28;21011;-72
2024/03/01 11:23:10;;;;;;;15.77;9.03;;;10.50;99.90;;;;;;5043572;28;20431;-72
2024/03/01 11:25:59;;;;;;;11.27;8.70;;;10.70;99.90;;;;;;5044047;28;20412;-72
2024/03/01 11:28:27;;;;;;;10.37;8.83;;;10.60;99.90;;;;;;5048346;28;20443;-72
2024/03/01 11:31:05;;;;;;;11.80;8.93;;;11.00;99.90;;;;;;5053814;28;20420;-71
2024/03/01 11:33:36;;;;;;;10.23;9.13;;;11.80;99.90;;;;;;5053954;28;20485;-71
2024/03/01 11:36:11;;;;;;;9.77;7.57;;;12.90;99.90;;;;;;5054119;28;20483;-71
2024/03/01 11:38:45;;;;;;;8.33;7.27;;;13.40;99.90;;;;;;5053185;28;20439;-71
2024/03/01 11:41:26;;;;;;;7.87;7.07;;;13.50;99.90;;;;;;5053884;28;20493;-71
2024/03/01 11:44:29;;;;;;;8.07;7.10;;;12.70;99.90;;;;;;5053820;28;20786;-71
2024/03/01 11:47:22;;;;;;;8.33;7.43;;;12.60;99.90;;;;;;5053270;28;20507;-71
2024/03/01 11:50:07;;;;;;;8.70;7.80;;;12.50;99.90;;;;;;5030617;28;20530;-71
2024/03/01 11:53:11;;;;;;;8.27;7.37;;;13.20;99.90;;;;;;5073137;28;20483;-71
2024/03/01 11:56:01;;;;;;;8.17;6.73;;;13.20;99.90;;;;;;5073627;28;20415;-71
2024/03/01 11:59:08;;;;;;;8.03;7.20;;;12.60;99.90;;;;;;5072756;28;20917;-71
2024/03/01 12:01:40;;;;;;;12.23;7.27;;;12.50;99.90;;;;;;5073902;28;20464;-71
2024/03/01 12:04:29;;;;;;;8.27;7.47;;;13.00;99.90;;;;;;5073557;28;21011;-71
2024/03/01 12:07:38;;;;;;;8.47;7.63;;;13.20;99.90;;;;;;5072851;28;20473;-71
2024/03/01 12:10:23;;;;;;;6.60;5.90;;;13.50;99.90;;;;;;5073469;28;20732;-71
2024/03/01 12:12:52;;;;;;;8.70;7.47;;;14.00;99.90;;;;;;5062378;28;20498;-71
2024/03/01 12:15:28;;;;;;;7.70;6.97;;;14.30;99.90;;;;;;5073280;28;20408;-71
2024/03/01 12:17:57;;;;;;;7.93;7.20;;;14.30;99.90;;;;;;5072536;28;20488;-72
2024/03/01 12:20:23;;;;;;;8.63;7.83;;;13.30;99.90;;;;;;5073235;28;20415;-72
2024/03/01 12:23:07;;;;;;;8.10;7.30;;;12.90;99.90;;;;;;5073099;28;20426;-71
2024/03/01 12:25:37;;;;;;;7.63;6.83;;;12.50;99.90;;;;;;5072005;28;20161;-71
2024/03/01 12:28:38;;;;;;;7.20;5.77;;;12.10;99.90;;;;;;5072202;28;20526;-71
2024/03/01 12:31:15;;;;;;;8.40;6.37;;;11.70;99.90;;;;;;5072696;28;20422;-71
2024/03/01 12:33:52;;;;;;;10.07;7.43;;;11.40;99.90;;;;;;5072855;28;20845;-72
2024/03/01 12:36:24;;;;;;;9.50;6.57;;;11.40;99.90;;;;;;5072603;28;20929;-72
2024/03/01 12:39:00;;;;;;;8.13;6.50;;;11.40;99.90;;;;;;5072520;28;20438;-71
2024/03/01 12:41:50;;;;;;;11.80;6.83;;;11.50;99.90;;;;;;5072722;28;20413;-72
2024/03/01 12:44:31;;;;;;;8.20;7.40;;;11.50;99.90;;;;;;5072758;28;20430;-72
2024/03/01 12:47:25;;;;;;;8.33;6.73;;;11.70;99.90;;;;;;5071991;28;20415;-71
2024/03/01 12:50:18;;;;;;;7.23;6.00;;;11.80;99.90;;;;;;5072570;28;20959;-70
2024/03/01 12:53:22;;;;;;;6.87;5.90;;;11.80;99.90;;;;;;5070305;28;20562;-72
2024/03/01 12:56:04;;;;;;;7.13;6.07;;;11.90;99.90;;;;;;5072528;28;20411;-71